Time;durP1;ratioP1;P1;durP2;ratioP2;P2;SDS_P1;SDS_P2;PMS_P1;PMS_P2;Temp;Humidity;BMP_temperature;BMP_pressure;BME280_temperature;BME280_humidity;BME280_pressure;Samples;Min_cycle;Max_cycle;Signal;HPM_P1;HPM_P2
2020/12/11 00:04:20;;;;;;;8.35;4.15;;;2.70;75.30;;;;;;10047357;28;20047;-68
2020/12/11 00:09:11;;;;;;;5.35;3.83;;;2.60;75.50;;;;;;10046169;28;20061;-67
2020/12/11 00:14:01;;;;;;;4.38;3.00;;;2.60;75.60;;;;;;10045396;28;20399;-69
2020/12/11 00:18:52;;;;;;;7.53;3.65;;;2.70;75.50;;;;;;10047454;28;20029;-69
2020/12/11 00:23:42;;;;;;;9.32;3.45;;;2.70;75.50;;;;;;10044510;28;20044;-67
2020/12/11 00:28:33;;;;;;;7.35;3.53;;;2.70;75.60;;;;;;10044005;28;20396;-68
2020/12/11 00:33:24;;;;;;;5.10;2.88;;;2.60;75.80;;;;;;10043953;28;20045;-67
2020/12/11 00:38:15;;;;;;;6.40;3.05;;;2.60;76.00;;;;;;10037786;28;20040;-68
2020/12/11 00:43:06;;;;;;;5.88;3.20;;;2.60;76.00;;;;;;10041889;28;20032;-68
2020/12/11 00:47:56;;;;;;;7.07;2.97;;;2.60;76.10;;;;;;10039013;28;20049;-67
2020/12/11 00:52:47;;;;;;;8.82;3.65;;;2.50;76.40;;;;;;10044923;28;20034;-67
2020/12/11 00:57:37;;;;;;;7.47;3.63;;;2.40;76.50;;;;;;10044922;28;20033;-68
2020/12/11 01:02:28;;;;;;;10.30;4.30;;;2.40;76.60;;;;;;10047922;28;20404;-68
2020/12/11 01:07:19;;;;;;;6.95;3.65;;;2.30;76.60;;;;;;10040648;28;20044;-68
2020/12/11 01:12:09;;;;;;;7.68;3.72;;;2.30;76.80;;;;;;10038067;28;20108;-68
2020/12/11 01:17:00;;;;;;;6.85;3.42;;;2.30;76.80;;;;;;10045295;28;20061;-67
2020/12/11 01:21:50;;;;;;;6.13;3.53;;;2.30;77.00;;;;;;10041236;28;20033;-67
2020/12/11 01:26:45;;;;;;;7.05;4.05;;;2.30;76.80;;;;;;10042664;28;20030;-68
2020/12/11 01:31:36;;;;;;;7.47;3.72;;;2.20;77.20;;;;;;10041557;28;20061;-68
2020/12/11 01:36:26;;;;;;;10.50;4.80;;;2.30;77.30;;;;;;10037206;28;20069;-67
2020/12/11 01:41:20;;;;;;;8.23;4.07;;;2.30;77.30;;;;;;10052054;28;20068;-68
2020/12/11 01:46:18;;;;;;;8.40;4.28;;;2.30;77.40;;;;;;10041076;28;20047;-68
2020/12/11 01:51:08;;;;;;;6.88;3.90;;;2.30;77.60;;;;;;10036114;28;20037;-68
2020/12/11 01:56:01;;;;;;;8.43;3.92;;;2.20;77.70;;;;;;10045096;28;20041;-67
2020/12/11 02:00:55;;;;;;;10.25;4.53;;;2.20;77.70;;;;;;10038572;28;20065;-68
2020/12/11 02:05:47;;;;;;;9.57;4.40;;;2.20;77.80;;;;;;10040989;28;20049;-67
2020/12/11 02:10:37;;;;;;;7.55;3.55;;;2.10;78.00;;;;;;10040530;28;20087;-67
2020/12/11 02:15:28;;;;;;;9.75;5.13;;;2.10;78.10;;;;;;10038562;28;20065;-68
2020/12/11 02:20:18;;;;;;;6.20;3.42;;;2.00;78.40;;;;;;10047001;28;20040;-68
2020/12/11 02:25:09;;;;;;;7.82;3.90;;;2.20;78.30;;;;;;10042651;28;20170;-68
2020/12/11 02:30:00;;;;;;;6.05;3.60;;;2.20;78.10;;;;;;10046076;28;20484;-68
2020/12/11 02:34:50;;;;;;;9.85;4.07;;;2.10;78.30;;;;;;10042719;28;20038;-67
2020/12/11 02:39:41;;;;;;;6.72;3.90;;;2.20;78.30;;;;;;10045230;28;20022;-67
2020/12/11 02:44:32;;;;;;;11.93;4.85;;;2.20;78.20;;;;;;10037681;28;20040;-67
2020/12/11 02:49:23;;;;;;;8.48;3.90;;;2.10;78.30;;;;;;10043724;28;20135;-68
2020/12/11 02:54:14;;;;;;;8.18;4.32;;;2.20;78.30;;;;;;10046394;28;20057;-68
2020/12/11 02:59:04;;;;;;;6.35;4.10;;;2.20;78.20;;;;;;10046756;28;20037;-68
2020/12/11 03:03:56;;;;;;;9.90;4.85;;;2.20;78.10;;;;;;10046648;28;20040;-67
2020/12/11 03:08:47;;;;;;;9.80;5.07;;;2.10;78.40;;;;;;10037437;28;20514;-67
2020/12/11 03:13:37;;;;;;;10.52;5.15;;;2.10;78.50;;;;;;10047526;28;20161;-67
2020/12/11 03:18:28;;;;;;;7.90;4.30;;;2.00;78.50;;;;;;10052517;28;20034;-67
2020/12/11 03:23:18;;;;;;;9.70;4.50;;;2.00;78.70;;;;;;10038735;28;20453;-67
2020/12/11 03:28:09;;;;;;;10.40;5.22;;;2.00;78.50;;;;;;10047846;28;20026;-67
2020/12/11 03:33:00;;;;;;;10.10;3.75;;;1.90;78.70;;;;;;10047396;28;20476;-67
2020/12/11 03:37:50;;;;;;;8.35;4.78;;;1.90;78.60;;;;;;10044373;28;20040;-67
2020/12/11 03:42:41;;;;;;;11.55;5.57;;;1.90;78.40;;;;;;10044276;28;20412;-67
2020/12/11 03:47:32;;;;;;;11.35;5.25;;;1.90;78.40;;;;;;10045915;28;20068;-67
2020/12/11 03:52:26;;;;;;;10.20;4.03;;;1.90;78.60;;;;;;10039931;28;20112;-68
2020/12/11 03:57:16;;;;;;;8.80;3.97;;;2.00;78.40;;;;;;10041852;28;20038;-68
2020/12/11 04:02:07;;;;;;;7.93;3.70;;;1.90;78.60;;;;;;10041133;28;20041;-66
2020/12/11 04:06:57;;;;;;;9.52;5.15;;;1.90;78.70;;;;;;10046394;28;20476;-67
2020/12/11 04:11:48;;;;;;;8.95;3.85;;;1.90;78.50;;;;;;10041736;28;20499;-67
2020/12/11 04:16:39;;;;;;;8.50;4.75;;;1.90;78.90;;;;;;10042103;28;20034;-67
2020/12/11 04:21:29;;;;;;;8.57;3.92;;;1.90;79.10;;;;;;10041853;28;20072;-68
2020/12/11 04:26:20;;;;;;;9.23;4.32;;;2.20;78.90;;;;;;10043148;28;20033;-67
2020/12/11 04:31:11;;;;;;;10.93;4.13;;;2.20;78.90;;;;;;10042469;28;20135;-67
2020/12/11 04:36:01;;;;;;;6.72;4.50;;;2.30;79.10;;;;;;10042764;28;20061;-66
2020/12/11 04:40:59;;;;;;;10.35;4.32;;;2.40;79.00;;;;;;10040942;28;20034;-67
2020/12/11 04:45:50;;;;;;;6.47;4.00;;;2.50;78.80;;;;;;10043656;28;20045;-67
2020/12/11 04:50:41;;;;;;;6.05;3.45;;;2.40;79.30;;;;;;10046797;28;20522;-67
2020/12/11 04:55:36;;;;;;;7.80;4.88;;;2.40;80.10;;;;;;10042654;28;20391;-67
2020/12/11 05:00:27;;;;;;;10.57;4.18;;;2.50;79.50;;;;;;10036176;28;20038;-68
2020/12/11 05:05:18;;;;;;;6.97;3.38;;;2.50;79.20;;;;;;10042816;28;20045;-68
2020/12/11 05:10:10;;;;;;;8.73;4.22;;;2.50;79.40;;;;;;10039270;28;20519;-68
2020/12/11 05:15:09;;;;;;;9.00;4.55;;;2.50;79.20;;;;;;10043218;28;20034;-68
2020/12/11 05:20:00;;;;;;;9.25;4.47;;;2.60;79.30;;;;;;10064211;28;20085;-67
2020/12/11 05:24:53;;;;;;;7.47;3.90;;;2.70;79.10;;;;;;10040444;28;20484;-67
2020/12/11 05:29:43;;;;;;;9.18;3.90;;;2.70;79.10;;;;;;10042054;28;20034;-69
2020/12/11 05:34:36;;;;;;;10.30;4.60;;;2.90;78.60;;;;;;10037384;28;20499;-67
2020/12/11 05:39:31;;;;;;;7.65;3.70;;;2.80;78.40;;;;;;10037540;28;20029;-71
2020/12/11 05:44:30;;;;;;;10.27;5.20;;;2.80;78.30;;;;;;10033281;28;20091;-72
2020/12/11 05:49:26;;;;;;;12.90;4.72;;;2.80;78.70;;;;;;10035910;28;20073;-71
2020/12/11 05:54:18;;;;;;;8.23;3.72;;;2.90;78.30;;;;;;10029004;28;20033;-71
2020/12/11 05:59:09;;;;;;;8.80;5.05;;;2.80;78.40;;;;;;10041402;28;20408;-72
2020/12/11 06:04:00;;;;;;;8.75;4.82;;;2.80;78.40;;;;;;10032265;28;20444;-72
2020/12/11 06:08:53;;;;;;;7.30;3.47;;;2.90;78.30;;;;;;10038082;28;20037;-72
2020/12/11 06:14:06;;;;;;;7.82;3.70;;;2.90;78.40;;;;;;10065749;28;20431;-72
2020/12/11 06:19:02;;;;;;;8.32;3.95;;;3.00;78.20;;;;;;10031246;28;20504;-73
2020/12/11 06:23:53;;;;;;;;;;;2.90;78.20;;;;;;10035882;28;21148;-72
2020/12/11 06:28:45;;;;;;;8.00;3.50;;;2.80;78.00;;;;;;10042991;28;19925;-71
2020/12/11 06:33:37;;;;;;;9.45;3.90;;;2.80;78.00;;;;;;10047150;28;20519;-71
2020/12/11 06:38:53;;;;;;;5.75;3.20;;;2.80;77.90;;;;;;10045205;28;20037;-71
2020/12/11 06:43:45;;;;;;;6.83;3.43;;;2.80;77.80;;;;;;10043373;28;20473;-71
2020/12/11 06:48:36;;;;;;;6.93;3.67;;;2.70;77.80;;;;;;10045977;28;20119;-71
2020/12/11 06:53:40;;;;;;;10.77;5.13;;;2.70;77.70;;;;;;10036329;28;20537;-71
2020/12/11 06:58:31;;;;;;;6.72;3.47;;;2.70;77.70;;;;;;10042806;28;20120;-72
2020/12/11 07:03:24;;;;;;;7.80;4.18;;;2.80;77.70;;;;;;10038072;28;20419;-72
2020/12/11 07:08:16;;;;;;;6.15;3.85;;;2.90;77.20;;;;;;10040306;28;20049;-72
2020/12/11 07:13:08;;;;;;;7.60;4.15;;;2.90;77.20;;;;;;10040696;28;20042;-71
2020/12/11 07:17:58;;;;;;;8.90;4.47;;;2.90;77.10;;;;;;10042831;28;20029;-72
2020/12/11 07:22:50;;;;;;;8.57;3.58;;;3.00;77.10;;;;;;10038306;28;20032;-67
2020/12/11 07:27:41;;;;;;;7.28;4.35;;;3.10;76.90;;;;;;10047609;28;20034;-67
2020/12/11 07:32:31;;;;;;;7.35;3.90;;;3.10;76.80;;;;;;10043884;28;20040;-68
2020/12/11 07:37:23;;;;;;;13.85;4.75;;;3.10;76.80;;;;;;10033040;28;20442;-71
2020/12/11 07:42:21;;;;;;;8.15;3.55;;;3.20;76.70;;;;;;10037828;28;20084;-73
2020/12/11 07:47:15;;;;;;;6.38;3.35;;;3.30;76.30;;;;;;10037716;28;20453;-72
2020/12/11 07:52:06;;;;;;;8.68;4.78;;;3.20;76.40;;;;;;10041325;28;20562;-68
2020/12/11 07:57:08;;;;;;;11.32;4.32;;;3.40;76.30;;;;;;10044505;28;20040;-74
2020/12/11 08:01:58;;;;;;;11.98;5.00;;;3.50;76.40;;;;;;10035619;28;20026;-75
2020/12/11 08:06:59;;;;;;;11.35;4.90;;;3.60;76.10;;;;;;10039871;28;20037;-74
2020/12/11 08:11:49;;;;;;;8.68;4.25;;;3.60;75.90;;;;;;10034473;28;20292;-71
2020/12/11 08:16:41;;;;;;;7.13;5.15;;;3.60;76.00;;;;;;10041414;28;20463;-70
2020/12/11 08:21:32;;;;;;;11.18;5.30;;;3.60;76.20;;;;;;10035798;28;20025;-70
2020/12/11 08:26:24;;;;;;;8.15;4.38;;;3.70;76.10;;;;;;10033041;28;20034;-68
2020/12/11 08:31:20;;;;;;;8.35;4.65;;;3.80;75.70;;;;;;10035047;28;20084;-64
2020/12/11 08:36:24;;;;;;;11.25;5.13;;;3.90;75.40;;;;;;10035473;28;20092;-70
2020/12/11 08:41:17;;;;;;;12.90;4.85;;;4.00;75.30;;;;;;10034737;28;20036;-75
2020/12/11 08:46:18;;;;;;;10.25;4.88;;;4.10;75.20;;;;;;10037404;28;20140;-75
2020/12/11 08:51:09;;;;;;;8.75;4.55;;;4.10;75.00;;;;;;10040460;28;20056;-69
2020/12/11 08:56:00;;;;;;;11.00;4.97;;;4.10;75.10;;;;;;10040227;28;20061;-68
2020/12/11 09:00:51;;;;;;;12.82;5.43;;;4.20;75.30;;;;;;10033608;28;20069;-70
2020/12/11 09:05:42;;;;;;;9.90;5.40;;;4.10;75.20;;;;;;10039741;28;20099;-70
2020/12/11 09:10:32;;;;;;;12.57;5.30;;;4.10;75.20;;;;;;10030108;28;20037;-70
2020/12/11 09:15:23;;;;;;;10.57;5.32;;;4.20;75.30;;;;;;10037842;28;20495;-74
2020/12/11 09:20:14;;;;;;;10.48;5.00;;;4.30;75.10;;;;;;10032896;28;20033;-71
2020/12/11 09:25:05;;;;;;;9.85;4.82;;;4.30;74.90;;;;;;10037939;28;20056;-70
2020/12/11 09:30:09;;;;;;;11.70;4.68;;;4.30;75.10;;;;;;10039070;28;20487;-73
2020/12/11 09:35:00;;;;;;;14.85;6.88;;;4.40;74.70;;;;;;10034498;28;20028;-70
2020/12/11 09:39:50;;;;;;;12.57;4.82;;;4.60;74.90;;;;;;10032799;28;20029;-70
2020/12/11 09:54:40;;;;;;;10.20;5.30;;;5.00;73.90;;;;;;10033944;28;20029;-73
2020/12/11 10:04:47;;;;;;;11.30;4.88;;;5.00;73.50;;;;;;10031340;28;20033;-66
2020/12/11 10:09:38;;;;;;;10.65;5.20;;;5.10;73.20;;;;;;10029532;28;20053;-74
2020/12/11 10:14:35;;;;;;;13.00;4.72;;;5.20;73.30;;;;;;10037832;28;20100;-70
2020/12/11 10:19:29;;;;;;;13.80;5.65;;;5.00;73.00;;;;;;10039274;28;20018;-74
2020/12/11 10:24:21;;;;;;;10.77;4.47;;;5.10;73.50;;;;;;10063171;28;20464;-73
2020/12/11 10:29:12;;;;;;;9.70;5.43;;;5.10;73.20;;;;;;10033378;28;20071;-70
2020/12/11 10:34:02;;;;;;;10.45;4.97;;;5.20;73.20;;;;;;10028668;28;20630;-68
2020/12/11 10:38:53;;;;;;;10.13;4.82;;;5.20;72.90;;;;;;10038134;28;20045;-71
2020/12/11 10:43:43;;;;;;;10.13;5.47;;;5.20;72.90;;;;;;10035736;28;20025;-67
2020/12/11 10:48:34;;;;;;;8.75;4.43;;;5.30;72.50;;;;;;10040037;28;20057;-68
2020/12/11 10:53:24;;;;;;;11.10;5.25;;;5.30;72.30;;;;;;10034641;28;20017;-68
2020/12/11 10:58:16;;;;;;;12.30;5.40;;;5.50;72.20;;;;;;10029432;28;20061;-68
2020/12/11 11:03:07;;;;;;;10.43;5.05;;;5.50;71.90;;;;;;10030361;28;20057;-67
2020/12/11 11:07:58;;;;;;;10.32;4.88;;;5.60;72.00;;;;;;10033014;28;20084;-70
2020/12/11 11:13:00;;;;;;;24.83;11.80;;;5.80;71.90;;;;;;10035159;28;20459;-69
2020/12/11 11:27:46;;;;;;;11.40;5.40;;;5.70;72.10;;;;;;10037461;28;20025;-69
2020/12/11 11:32:37;;;;;;;11.43;5.57;;;5.70;72.20;;;;;;10037409;28;20033;-69
2020/12/11 11:37:28;;;;;;;9.55;5.25;;;5.70;71.90;;;;;;10035622;28;20056;-71
2020/12/11 11:42:19;;;;;;;7.25;4.03;;;5.50;71.90;;;;;;10056125;28;20057;-71
2020/12/11 11:47:10;;;;;;;5.90;3.80;;;5.60;71.70;;;;;;10044077;28;20080;-71
2020/12/11 11:52:11;;;;;;;8.20;5.10;;;5.60;71.50;;;;;;10043187;28;20037;-70
2020/12/11 11:57:02;;;;;;;8.73;4.45;;;5.70;71.20;;;;;;10041323;28;20029;-65
2020/12/11 12:01:54;;;;;;;7.72;4.30;;;5.60;71.40;;;;;;10041881;28;20033;-72
2020/12/11 12:06:44;;;;;;;9.60;4.65;;;5.60;71.20;;;;;;10036543;28;20033;-73
2020/12/11 12:11:35;;;;;;;11.63;5.20;;;5.50;71.10;;;;;;10041728;28;20029;-77
2020/12/11 12:16:26;;;;;;;9.57;4.65;;;5.50;71.30;;;;;;10037474;28;20243;-71
2020/12/11 12:21:29;;;;;;;10.50;5.15;;;5.50;71.20;;;;;;10041877;28;20026;-71
2020/12/11 12:31:42;;;;;;;10.10;4.13;;;5.60;71.00;;;;;;10036486;28;20048;-73
2020/12/11 12:42:25;;;;;;;8.00;4.50;;;5.50;71.50;;;;;;10039074;28;20091;-73
2020/12/11 12:46:46;;;;;;;7.35;4.53;;;5.40;71.60;;;;;;10022787;28;20574;-69
2020/12/11 12:51:36;;;;;;;9.98;4.78;;;5.40;72.10;;;;;;10033650;28;20129;-70
2020/12/11 12:56:50;;;;;;;11.80;4.85;;;5.30;72.30;;;;;;10034485;28;20037;-69
2020/12/11 13:06:50;;;;;;;11.18;5.00;;;5.20;72.70;;;;;;10038025;28;20521;-70
2020/12/11 13:11:40;;;;;;;10.80;5.30;;;5.20;72.70;;;;;;10038478;28;20037;-68
2020/12/11 13:16:31;;;;;;;6.85;4.20;;;5.20;73.00;;;;;;10034233;28;20045;-69
2020/12/11 13:21:28;;;;;;;8.23;4.55;;;5.20;73.40;;;;;;10036899;28;20025;-70
2020/12/11 13:26:41;;;;;;;9.45;5.88;;;5.10;73.90;;;;;;10032513;28;20496;-71
2020/12/11 13:31:32;;;;;;;11.52;5.00;;;5.10;74.00;;;;;;10032273;28;20053;-66
2020/12/11 13:36:22;;;;;;;8.20;4.60;;;5.10;74.30;;;;;;10039525;28;20041;-71
2020/12/11 13:41:13;;;;;;;11.52;5.30;;;5.10;74.40;;;;;;10033498;28;20265;-68
2020/12/11 13:46:03;;;;;;;7.20;3.78;;;5.20;74.50;;;;;;10036488;28;20057;-72
2020/12/11 13:50:54;;;;;;;9.43;4.50;;;5.30;74.60;;;;;;10032841;28;20492;-73
2020/12/11 13:55:45;;;;;;;5.95;4.10;;;5.30;74.70;;;;;;10033453;28;20036;-72
2020/12/11 14:00:35;;;;;;;5.65;3.42;;;5.20;75.50;;;;;;10038891;28;20041;-68
2020/12/11 14:05:26;;;;;;;4.85;3.58;;;5.20;75.70;;;;;;10030124;28;20033;-70
2020/12/11 14:10:17;;;;;;;6.97;4.00;;;5.20;75.90;;;;;;10037842;28;20045;-72
2020/12/11 14:15:10;;;;;;;7.15;3.92;;;5.30;76.00;;;;;;10033597;28;20511;-72
2020/12/11 14:20:17;;;;;;;6.45;3.13;;;5.20;76.10;;;;;;10034082;28;20435;-77
2020/12/11 14:25:07;;;;;;;6.78;3.50;;;5.10;76.30;;;;;;10036774;28;20068;-69
2020/12/11 14:29:58;;;;;;;6.25;3.58;;;5.20;76.50;;;;;;10031540;28;20128;-70
2020/12/11 14:34:53;;;;;;;6.70;3.90;;;5.30;76.30;;;;;;10034867;28;20316;-70
2020/12/11 14:39:43;;;;;;;5.55;3.35;;;5.20;76.50;;;;;;10034704;28;20037;-72
2020/12/11 14:44:34;;;;;;;5.45;3.22;;;5.20;76.40;;;;;;10039923;28;20052;-71
2020/12/11 14:49:25;;;;;;;7.15;3.83;;;5.20;76.80;;;;;;10041372;28;20444;-75
2020/12/11 14:54:16;;;;;;;6.47;3.67;;;5.20;77.20;;;;;;10037015;28;20037;-72
2020/12/11 14:59:06;;;;;;;8.63;3.95;;;5.20;77.20;;;;;;10044587;28;20029;-72
2020/12/11 15:03:58;;;;;;;7.15;4.10;;;5.10;77.30;;;;;;10042032;28;20487;-73
2020/12/11 15:08:49;;;;;;;6.43;4.20;;;5.20;77.80;;;;;;10040028;28;20041;-73
2020/12/11 15:13:42;;;;;;;5.18;3.25;;;5.10;78.20;;;;;;10038755;28;20222;-72
2020/12/11 15:18:32;;;;;;;4.20;3.35;;;5.10;78.40;;;;;;10044636;28;20096;-74
2020/12/11 15:23:23;;;;;;;7.25;4.20;;;5.20;78.60;;;;;;10035899;28;20026;-74
2020/12/11 15:28:14;;;;;;;6.13;3.30;;;5.20;78.60;;;;;;10036215;28;20057;-71
2020/12/11 15:33:04;;;;;;;5.28;3.33;;;5.20;78.60;;;;;;10046566;28;20092;-74
2020/12/11 15:37:55;;;;;;;7.65;3.63;;;5.30;78.50;;;;;;10037798;28;20033;-71
2020/12/11 15:42:49;;;;;;;5.72;4.20;;;5.30;78.40;;;;;;10048068;28;20029;-71
2020/12/11 15:47:40;;;;;;;5.88;3.67;;;5.30;78.60;;;;;;10041484;28;20391;-75
2020/12/11 15:52:31;;;;;;;6.15;3.55;;;5.40;78.90;;;;;;10038173;28;20125;-71
2020/12/11 15:57:21;;;;;;;6.50;4.45;;;5.40;78.90;;;;;;10039910;28;20037;-66
2020/12/11 16:02:12;;;;;;;6.00;3.97;;;5.40;79.10;;;;;;10036020;28;20088;-72
2020/12/11 16:07:03;;;;;;;8.30;4.22;;;5.50;78.90;;;;;;10059661;28;20041;-69
2020/12/11 16:11:57;;;;;;;8.73;4.22;;;5.50;79.30;;;;;;10034138;28;20153;-67
2020/12/11 16:16:47;;;;;;;6.88;4.03;;;5.40;79.30;;;;;;10038575;28;20060;-73
2020/12/11 16:21:39;;;;;;;5.57;2.97;;;5.40;79.40;;;;;;10036420;28;20037;-72
2020/12/11 16:26:31;;;;;;;5.97;3.83;;;5.30;80.00;;;;;;10033154;28;20476;-67
2020/12/11 16:31:22;;;;;;;8.75;4.03;;;5.30;80.10;;;;;;10029141;28;20033;-68
2020/12/11 16:36:13;;;;;;;6.80;3.90;;;5.40;80.00;;;;;;10035908;28;20474;-68
2020/12/11 16:41:04;;;;;;;6.70;3.67;;;5.40;80.10;;;;;;10032451;28;20038;-73
2020/12/11 16:45:59;;;;;;;5.25;3.47;;;5.50;80.10;;;;;;10032448;28;20036;-75
2020/12/11 16:50:50;;;;;;;6.77;3.43;;;5.40;80.40;;;;;;10033137;28;20467;-75
2020/12/11 16:55:40;;;;;;;4.75;3.53;;;5.40;80.70;;;;;;10035601;28;20038;-73
2020/12/11 17:00:34;;;;;;;4.45;2.90;;;5.50;80.60;;;;;;10034581;28;20034;-74
2020/12/11 17:10:34;;;;;;;5.82;3.05;;;5.50;81.00;;;;;;10026075;28;20041;-70
2020/12/11 17:15:25;;;;;;;8.05;3.90;;;5.60;81.30;;;;;;10041217;28;20045;-68
2020/12/11 17:20:15;;;;;;;6.22;3.25;;;5.60;81.70;;;;;;10041411;28;20033;-67
2020/12/11 17:25:06;;;;;;;7.65;3.53;;;5.70;81.60;;;;;;10042731;28;20155;-71
2020/12/11 17:30:01;;;;;;;6.32;3.67;;;5.80;81.50;;;;;;10035624;28;20417;-71
2020/12/11 17:34:57;;;;;;;8.85;4.80;;;5.70;81.60;;;;;;10027856;28;20396;-70
2020/12/11 17:39:47;;;;;;;10.10;3.67;;;5.70;81.70;;;;;;10035953;28;20110;-69
2020/12/11 17:44:39;;;;;;;6.53;3.25;;;5.80;81.60;;;;;;10035787;28;20033;-68
2020/12/11 17:49:30;;;;;;;7.55;3.78;;;5.70;82.00;;;;;;10034782;28;20583;-69
2020/12/11 17:54:21;;;;;;;7.30;4.20;;;5.70;81.80;;;;;;10030740;28;20033;-66
2020/12/11 17:59:12;;;;;;;8.00;3.92;;;5.70;82.10;;;;;;10034514;28;20049;-67
2020/12/11 18:04:02;;;;;;;11.75;4.78;;;5.70;82.30;;;;;;10034629;28;20065;-67
2020/12/11 18:08:53;;;;;;;7.53;4.18;;;5.70;82.10;;;;;;10035206;28;20037;-71
2020/12/11 18:13:43;;;;;;;10.48;5.03;;;5.70;82.30;;;;;;10035343;28;20040;-68
2020/12/11 18:18:34;;;;;;;6.65;3.92;;;5.80;82.40;;;;;;10027598;28;20045;-68
2020/12/11 18:23:25;;;;;;;9.32;4.35;;;5.80;82.60;;;;;;10032148;28;20033;-69
2020/12/11 18:28:17;;;;;;;12.40;4.95;;;5.70;82.70;;;;;;10034615;28;20037;-68
2020/12/11 18:33:08;;;;;;;12.95;5.35;;;5.80;82.70;;;;;;10027517;28;20040;-68
2020/12/11 18:37:58;;;;;;;8.25;4.70;;;5.80;82.70;;;;;;10032792;28;20033;-66
2020/12/11 18:42:49;;;;;;;8.82;3.80;;;5.80;82.70;;;;;;10035883;28;20066;-65
2020/12/11 18:47:40;;;;;;;6.88;4.15;;;5.90;82.80;;;;;;10034747;28;20054;-66
2020/12/11 18:52:30;;;;;;;7.03;4.00;;;5.80;82.80;;;;;;10037692;28;20041;-69
2020/12/11 18:57:21;;;;;;;6.90;3.83;;;5.90;83.10;;;;;;10041175;28;20029;-74
2020/12/11 19:02:12;;;;;;;9.60;4.80;;;5.90;83.00;;;;;;10038512;28;20056;-74
2020/12/11 19:07:03;;;;;;;12.07;4.32;;;5.90;82.90;;;;;;10036157;28;20033;-74
2020/12/11 19:11:53;;;;;;;9.98;4.50;;;5.90;82.80;;;;;;10034723;28;20041;-71
2020/12/11 19:16:44;;;;;;;9.10;4.07;;;5.90;83.00;;;;;;10033375;28;20028;-71
2020/12/11 19:21:35;;;;;;;7.65;4.63;;;5.80;83.20;;;;;;10029484;28;20408;-68
2020/12/11 19:26:26;;;;;;;8.15;4.78;;;5.80;83.70;;;;;;10030466;28;20029;-66
2020/12/11 19:31:16;;;;;;;7.90;4.22;;;5.80;84.10;;;;;;10034551;28;20472;-69
2020/12/11 19:36:07;;;;;;;8.50;4.82;;;5.80;83.70;;;;;;10033142;28;20034;-71
2020/12/11 19:40:59;;;;;;;8.85;4.18;;;5.80;83.80;;;;;;10039362;28;20044;-70
2020/12/11 19:45:49;;;;;;;10.60;5.15;;;5.80;83.70;;;;;;10036754;28;20116;-73
2020/12/11 19:50:41;;;;;;;9.48;4.97;;;5.90;83.80;;;;;;10043827;28;20582;-72
2020/12/11 19:55:32;;;;;;;10.90;4.90;;;5.90;84.10;;;;;;10046586;28;20244;-75
2020/12/11 20:00:23;;;;;;;11.43;5.32;;;5.90;84.10;;;;;;10040334;28;20395;-76
2020/12/11 20:05:14;;;;;;;7.28;4.18;;;5.80;84.30;;;;;;10040967;28;20032;-71
2020/12/11 20:10:07;;;;;;;9.88;4.75;;;5.80;84.50;;;;;;10039701;28;20037;-72
2020/12/11 20:14:58;;;;;;;12.48;5.35;;;5.90;84.60;;;;;;10047061;28;20535;-78
2020/12/11 20:19:49;;;;;;;8.75;4.45;;;5.90;84.60;;;;;;10034667;28;20030;-69
2020/12/11 20:24:39;;;;;;;9.00;4.75;;;5.90;84.70;;;;;;10041871;28;20048;-69
2020/12/11 20:29:30;;;;;;;8.98;4.50;;;6.00;84.60;;;;;;10039422;28;20049;-70
2020/12/11 20:34:25;;;;;;;7.28;4.13;;;5.90;84.70;;;;;;10046038;28;20037;-71
2020/12/11 20:39:15;;;;;;;6.00;4.18;;;5.90;85.10;;;;;;10041918;28;20029;-74
2020/12/11 20:44:06;;;;;;;8.45;4.43;;;5.90;85.20;;;;;;10043433;28;20037;-69
2020/12/11 20:48:57;;;;;;;7.10;4.93;;;6.00;85.10;;;;;;10036724;28;20095;-73
2020/12/11 20:53:48;;;;;;;11.25;4.75;;;6.00;85.10;;;;;;10036069;28;20033;-72
2020/12/11 20:58:39;;;;;;;10.38;4.30;;;6.00;84.80;;;;;;10038648;28;20033;-73
2020/12/11 21:03:29;;;;;;;9.98;4.95;;;6.00;85.20;;;;;;10039451;28;20040;-74
2020/12/11 21:08:22;;;;;;;9.60;4.97;;;6.00;85.20;;;;;;10037666;28;20108;-76
2020/12/11 21:13:14;;;;;;;9.95;5.60;;;6.00;85.10;;;;;;10035868;28;20565;-74
2020/12/11 21:18:04;;;;;;;9.88;4.85;;;6.00;84.90;;;;;;10035153;28;20049;-75
2020/12/11 21:22:55;;;;;;;12.13;5.78;;;6.00;85.10;;;;;;10038339;28;20033;-75
2020/12/11 21:27:45;;;;;;;9.95;5.55;;;6.00;85.20;;;;;;10038764;28;20459;-76
2020/12/11 21:32:45;;;;;;;10.05;5.10;;;6.00;85.20;;;;;;10040181;28;20056;-76
2020/12/11 21:37:36;;;;;;;8.20;4.70;;;6.00;85.40;;;;;;10041055;28;20034;-76
2020/12/11 21:42:26;;;;;;;7.60;5.13;;;6.00;85.40;;;;;;10042348;28;20029;-76
2020/12/11 21:47:17;;;;;;;9.13;5.13;;;6.00;85.30;;;;;;10040591;28;20091;-76
2020/12/11 21:52:08;;;;;;;9.10;4.70;;;6.00;85.40;;;;;;10041653;28;20377;-77
2020/12/11 21:56:59;;;;;;;10.57;4.97;;;6.10;85.50;;;;;;10043074;28;20034;-79
2020/12/11 22:01:51;;;;;;;8.30;5.25;;;6.00;85.40;;;;;;10045960;28;20068;-78
2020/12/11 22:06:41;;;;;;;9.45;4.82;;;6.00;85.50;;;;;;10045007;28;20063;-79
2020/12/11 22:11:32;;;;;;;10.25;5.97;;;6.00;85.50;;;;;;10046474;28;20094;-78
2020/12/11 22:16:22;;;;;;;9.15;5.30;;;6.00;85.50;;;;;;10040648;28;20029;-78
2020/12/11 22:21:13;;;;;;;9.65;5.28;;;5.90;85.70;;;;;;10045109;28;20114;-76
2020/12/11 22:26:03;;;;;;;9.10;5.28;;;6.10;85.50;;;;;;10040041;28;20029;-75
2020/12/11 22:30:54;;;;;;;12.60;5.32;;;6.00;85.30;;;;;;10039092;28;20138;-77
2020/12/11 22:35:45;;;;;;;10.85;5.43;;;6.00;85.30;;;;;;10033385;28;20037;-77
2020/12/11 22:40:36;;;;;;;8.35;4.80;;;5.90;85.40;;;;;;10041689;28;20040;-76
2020/12/11 22:45:27;;;;;;;7.22;4.30;;;5.80;85.50;;;;;;10034176;28;20037;-76
2020/12/11 22:50:19;;;;;;;12.23;4.85;;;5.80;85.60;;;;;;10041641;28;20045;-73
2020/12/11 22:55:09;;;;;;;8.18;4.03;;;5.90;85.50;;;;;;10045666;28;20041;-75
2020/12/11 23:00:02;;;;;;;7.78;4.32;;;5.90;85.30;;;;;;10045353;28;20148;-78
2020/12/11 23:04:52;;;;;;;7.82;4.65;;;6.00;85.30;;;;;;10069203;28;20067;-76
2020/12/11 23:09:45;;;;;;;7.45;4.28;;;6.00;85.10;;;;;;10079512;28;20068;-75
2020/12/11 23:14:36;;;;;;;8.82;4.72;;;6.10;85.00;;;;;;10044527;28;20029;-76
2020/12/11 23:19:27;;;;;;;6.80;3.80;;;6.10;85.20;;;;;;10046542;28;20025;-76
2020/12/11 23:24:17;;;;;;;7.40;4.55;;;6.10;85.40;;;;;;10050054;28;20021;-77
2020/12/11 23:29:08;;;;;;;5.90;4.35;;;6.00;85.50;;;;;;10042635;28;20030;-76
2020/12/11 23:33:58;;;;;;;7.13;4.47;;;6.00;85.60;;;;;;10050961;28;20403;-76
2020/12/11 23:38:49;;;;;;;8.15;5.00;;;6.10;85.40;;;;;;10038654;28;20068;-76
2020/12/11 23:43:40;;;;;;;6.22;4.20;;;6.10;85.30;;;;;;10044252;28;20040;-76
2020/12/11 23:48:30;;;;;;;8.88;4.70;;;6.10;85.20;;;;;;10050881;28;20430;-76
2020/12/11 23:53:21;;;;;;;8.38;4.78;;;6.10;85.20;;;;;;10048652;28;20064;-76
2020/12/11 23:58:12;;;;;;;8.73;3.65;;;6.10;85.20;;;;;;10043775;28;20044;-76
